ΕΜΥ, Εθνική Μετεωρολογική Υπηρεσία - Δελτία Καιρού, Προγνώσεις

ΑΕΡΟΝΑΥΤΙΛΙΑ

GREEK AIRPORTS CODES

TAF LGTT 200400Z 2006/2015 36012KT 9999 FEW018 TEMPO 2006/2012 FEW018 SCT025=

EUROPEAN AIRPORTS CODES

LFPO 200430Z 18008KT CAVOK 15/12 Q1012 NOSIG=